<?xml version="1.0" encoding="UTF-8" standalone="no" ?>
<gpx xmlns="http://www.topografix.com/GPX/1/1" xmlns:xsi="http://www.w3.org/2001/XMLSchema-instance" xsi:schemaLocation="http://www.topografix.com/GPX/1/1 http://www.topografix.com/GPX/1/1/gpx.xsd" version="1.1" creator="VisuGPX - https://www.visugpx.com">
  <metadata>
    <name>RSPFY-Port Royal</name>
    <desc><![CDATA[boucle en partant du parking de l'Abbaye de Port Royal des Champs jusqu'à la cabane du Manet et retour par les Granges de Port Royal.]]></desc>
  </metadata>
  <trk>
    <name><![CDATA[2020-10-01 09:05]]></name>
    <trkseg>
      <trkpt lat="48.74102" lon="2.01803">
        <ele>120</ele>
        <time>2020-10-01T07:11:05Z</time>
      </trkpt>
      <trkpt lat="48.74083" lon="2.01798">
        <ele>119</ele>
        <time>2020-10-01T07:13:04Z</time>
      </trkpt>
      <trkpt lat="48.74065" lon="2.01803">
        <ele>119</ele>
        <time>2020-10-01T07:13:19Z</time>
      </trkpt>
      <trkpt lat="48.74047" lon="2.01803">
        <ele>119</ele>
        <time>2020-10-01T07:13:36Z</time>
      </trkpt>
      <trkpt lat="48.74031" lon="2.01788">
        <ele>119</ele>
        <time>2020-10-01T07:13:51Z</time>
      </trkpt>
      <trkpt lat="48.74018" lon="2.01767">
        <ele>119</ele>
        <time>2020-10-01T07:14:06Z</time>
      </trkpt>
      <trkpt lat="48.74001" lon="2.01753">
        <ele>118</ele>
        <time>2020-10-01T07:14:20Z</time>
      </trkpt>
      <trkpt lat="48.73985" lon="2.01768">
        <ele>117</ele>
        <time>2020-10-01T07:14:34Z</time>
      </trkpt>
      <trkpt lat="48.73994" lon="2.01792">
        <ele>116</ele>
        <time>2020-10-01T07:14:54Z</time>
      </trkpt>
      <trkpt lat="48.74012" lon="2.01798">
        <ele>118</ele>
        <time>2020-10-01T07:15:09Z</time>
      </trkpt>
      <trkpt lat="48.74029" lon="2.01811">
        <ele>118</ele>
        <time>2020-10-01T07:15:24Z</time>
      </trkpt>
      <trkpt lat="48.74045" lon="2.01826">
        <ele>118</ele>
        <time>2020-10-01T07:15:37Z</time>
      </trkpt>
      <trkpt lat="48.74061" lon="2.01842">
        <ele>115</ele>
        <time>2020-10-01T07:15:49Z</time>
      </trkpt>
      <trkpt lat="48.74077" lon="2.01856">
        <ele>115</ele>
        <time>2020-10-01T07:15:59Z</time>
      </trkpt>
      <trkpt lat="48.74094" lon="2.01868">
        <ele>116</ele>
        <time>2020-10-01T07:16:11Z</time>
      </trkpt>
      <trkpt lat="48.74109" lon="2.01884">
        <ele>115</ele>
        <time>2020-10-01T07:16:23Z</time>
      </trkpt>
      <trkpt lat="48.74124" lon="2.019">
        <ele>115</ele>
        <time>2020-10-01T07:16:36Z</time>
      </trkpt>
      <trkpt lat="48.74139" lon="2.01916">
        <ele>115</ele>
        <time>2020-10-01T07:16:50Z</time>
      </trkpt>
      <trkpt lat="48.74155" lon="2.0193">
        <ele>116</ele>
        <time>2020-10-01T07:17:06Z</time>
      </trkpt>
      <trkpt lat="48.74172" lon="2.01944">
        <ele>121</ele>
        <time>2020-10-01T07:17:20Z</time>
      </trkpt>
      <trkpt lat="48.7419" lon="2.01949">
        <ele>122</ele>
        <time>2020-10-01T07:17:35Z</time>
      </trkpt>
      <trkpt lat="48.74208" lon="2.01943">
        <ele>123</ele>
        <time>2020-10-01T07:17:46Z</time>
      </trkpt>
      <trkpt lat="48.74226" lon="2.01935">
        <ele>123</ele>
        <time>2020-10-01T07:17:59Z</time>
      </trkpt>
      <trkpt lat="48.74244" lon="2.01926">
        <ele>123</ele>
        <time>2020-10-01T07:18:11Z</time>
      </trkpt>
      <trkpt lat="48.7426" lon="2.01912">
        <ele>123</ele>
        <time>2020-10-01T07:18:24Z</time>
      </trkpt>
      <trkpt lat="48.74278" lon="2.01903">
        <ele>125</ele>
        <time>2020-10-01T07:18:37Z</time>
      </trkpt>
      <trkpt lat="48.74297" lon="2.01897">
        <ele>127</ele>
        <time>2020-10-01T07:18:51Z</time>
      </trkpt>
      <trkpt lat="48.74314" lon="2.01887">
        <ele>128</ele>
        <time>2020-10-01T07:19:04Z</time>
      </trkpt>
      <trkpt lat="48.7433" lon="2.01874">
        <ele>127</ele>
        <time>2020-10-01T07:19:16Z</time>
      </trkpt>
      <trkpt lat="48.74344" lon="2.01854">
        <ele>132</ele>
        <time>2020-10-01T07:19:30Z</time>
      </trkpt>
      <trkpt lat="48.74361" lon="2.0184">
        <ele>133</ele>
        <time>2020-10-01T07:19:44Z</time>
      </trkpt>
      <trkpt lat="48.74378" lon="2.01834">
        <ele>136</ele>
        <time>2020-10-01T07:19:57Z</time>
      </trkpt>
      <trkpt lat="48.74397" lon="2.01833">
        <ele>130</ele>
        <time>2020-10-01T07:20:13Z</time>
      </trkpt>
      <trkpt lat="48.74414" lon="2.01823">
        <ele>132</ele>
        <time>2020-10-01T07:20:28Z</time>
      </trkpt>
      <trkpt lat="48.74432" lon="2.01818">
        <ele>133</ele>
        <time>2020-10-01T07:20:41Z</time>
      </trkpt>
      <trkpt lat="48.7445" lon="2.01811">
        <ele>133</ele>
        <time>2020-10-01T07:20:54Z</time>
      </trkpt>
      <trkpt lat="48.74466" lon="2.01795">
        <ele>132</ele>
        <time>2020-10-01T07:21:10Z</time>
      </trkpt>
      <trkpt lat="48.74483" lon="2.01784">
        <ele>131</ele>
        <time>2020-10-01T07:21:21Z</time>
      </trkpt>
      <trkpt lat="48.74498" lon="2.01765">
        <ele>130</ele>
        <time>2020-10-01T07:21:34Z</time>
      </trkpt>
      <trkpt lat="48.74515" lon="2.01754">
        <ele>132</ele>
        <time>2020-10-01T07:21:45Z</time>
      </trkpt>
      <trkpt lat="48.7453" lon="2.0174">
        <ele>130</ele>
        <time>2020-10-01T07:22:35Z</time>
      </trkpt>
      <trkpt lat="48.74547" lon="2.0173">
        <ele>131</ele>
        <time>2020-10-01T07:24:27Z</time>
      </trkpt>
      <trkpt lat="48.74554" lon="2.01703">
        <ele>131</ele>
        <time>2020-10-01T07:24:43Z</time>
      </trkpt>
      <trkpt lat="48.74556" lon="2.01674">
        <ele>131</ele>
        <time>2020-10-01T07:24:56Z</time>
      </trkpt>
      <trkpt lat="48.74547" lon="2.0165">
        <ele>130</ele>
        <time>2020-10-01T07:25:07Z</time>
      </trkpt>
      <trkpt lat="48.74561" lon="2.01633">
        <ele>131</ele>
        <time>2020-10-01T07:25:42Z</time>
      </trkpt>
      <trkpt lat="48.74574" lon="2.01613">
        <ele>132</ele>
        <time>2020-10-01T07:26:12Z</time>
      </trkpt>
      <trkpt lat="48.74586" lon="2.01592">
        <ele>139</ele>
        <time>2020-10-01T07:26:30Z</time>
      </trkpt>
      <trkpt lat="48.74596" lon="2.01569">
        <ele>144</ele>
        <time>2020-10-01T07:26:47Z</time>
      </trkpt>
      <trkpt lat="48.74608" lon="2.01547">
        <ele>147</ele>
        <time>2020-10-01T07:27:05Z</time>
      </trkpt>
      <trkpt lat="48.74615" lon="2.01521">
        <ele>148</ele>
        <time>2020-10-01T07:27:23Z</time>
      </trkpt>
      <trkpt lat="48.7462" lon="2.01494">
        <ele>150</ele>
        <time>2020-10-01T07:27:42Z</time>
      </trkpt>
      <trkpt lat="48.74628" lon="2.01468">
        <ele>152</ele>
        <time>2020-10-01T07:27:59Z</time>
      </trkpt>
      <trkpt lat="48.74637" lon="2.01445">
        <ele>153</ele>
        <time>2020-10-01T07:28:15Z</time>
      </trkpt>
      <trkpt lat="48.74646" lon="2.01419">
        <ele>155</ele>
        <time>2020-10-01T07:28:32Z</time>
      </trkpt>
      <trkpt lat="48.74656" lon="2.01395">
        <ele>154</ele>
        <time>2020-10-01T07:28:50Z</time>
      </trkpt>
      <trkpt lat="48.74668" lon="2.01373">
        <ele>164</ele>
        <time>2020-10-01T07:29:06Z</time>
      </trkpt>
      <trkpt lat="48.7468" lon="2.01351">
        <ele>163</ele>
        <time>2020-10-01T07:29:23Z</time>
      </trkpt>
      <trkpt lat="48.74675" lon="2.01324">
        <ele>162</ele>
        <time>2020-10-01T07:31:05Z</time>
      </trkpt>
      <trkpt lat="48.74679" lon="2.01297">
        <ele>162</ele>
        <time>2020-10-01T07:31:20Z</time>
      </trkpt>
      <trkpt lat="48.74683" lon="2.0127">
        <ele>160</ele>
        <time>2020-10-01T07:31:34Z</time>
      </trkpt>
      <trkpt lat="48.74689" lon="2.01243">
        <ele>157</ele>
        <time>2020-10-01T07:31:47Z</time>
      </trkpt>
      <trkpt lat="48.74692" lon="2.01216">
        <ele>157</ele>
        <time>2020-10-01T07:31:59Z</time>
      </trkpt>
      <trkpt lat="48.74692" lon="2.01187">
        <ele>155</ele>
        <time>2020-10-01T07:32:11Z</time>
      </trkpt>
      <trkpt lat="48.74695" lon="2.01158">
        <ele>150</ele>
        <time>2020-10-01T07:32:24Z</time>
      </trkpt>
      <trkpt lat="48.74705" lon="2.01133">
        <ele>151</ele>
        <time>2020-10-01T07:32:38Z</time>
      </trkpt>
      <trkpt lat="48.74717" lon="2.01111">
        <ele>152</ele>
        <time>2020-10-01T07:32:52Z</time>
      </trkpt>
      <trkpt lat="48.74722" lon="2.01084">
        <ele>153</ele>
        <time>2020-10-01T07:33:07Z</time>
      </trkpt>
      <trkpt lat="48.74723" lon="2.01055">
        <ele>151</ele>
        <time>2020-10-01T07:33:20Z</time>
      </trkpt>
      <trkpt lat="48.74727" lon="2.01028">
        <ele>152</ele>
        <time>2020-10-01T07:33:36Z</time>
      </trkpt>
      <trkpt lat="48.74736" lon="2.01003">
        <ele>155</ele>
        <time>2020-10-01T07:33:51Z</time>
      </trkpt>
      <trkpt lat="48.74742" lon="2.00976">
        <ele>155</ele>
        <time>2020-10-01T07:34:08Z</time>
      </trkpt>
      <trkpt lat="48.74749" lon="2.0095">
        <ele>155</ele>
        <time>2020-10-01T07:34:25Z</time>
      </trkpt>
      <trkpt lat="48.7476" lon="2.00928">
        <ele>165</ele>
        <time>2020-10-01T07:34:45Z</time>
      </trkpt>
      <trkpt lat="48.74771" lon="2.00906">
        <ele>167</ele>
        <time>2020-10-01T07:37:13Z</time>
      </trkpt>
      <trkpt lat="48.74779" lon="2.0088">
        <ele>168</ele>
        <time>2020-10-01T07:37:29Z</time>
      </trkpt>
      <trkpt lat="48.74789" lon="2.00857">
        <ele>169</ele>
        <time>2020-10-01T07:37:43Z</time>
      </trkpt>
      <trkpt lat="48.74801" lon="2.00834">
        <ele>170</ele>
        <time>2020-10-01T07:37:58Z</time>
      </trkpt>
      <trkpt lat="48.74809" lon="2.00808">
        <ele>170</ele>
        <time>2020-10-01T07:38:13Z</time>
      </trkpt>
      <trkpt lat="48.74819" lon="2.00785">
        <ele>170</ele>
        <time>2020-10-01T07:38:28Z</time>
      </trkpt>
      <trkpt lat="48.74833" lon="2.00765">
        <ele>172</ele>
        <time>2020-10-01T07:38:41Z</time>
      </trkpt>
      <trkpt lat="48.74843" lon="2.00742">
        <ele>174</ele>
        <time>2020-10-01T07:38:55Z</time>
      </trkpt>
      <trkpt lat="48.74843" lon="2.00714">
        <ele>173</ele>
        <time>2020-10-01T07:39:11Z</time>
      </trkpt>
      <trkpt lat="48.74843" lon="2.00686">
        <ele>171</ele>
        <time>2020-10-01T07:39:30Z</time>
      </trkpt>
      <trkpt lat="48.7485" lon="2.0066">
        <ele>170</ele>
        <time>2020-10-01T07:39:46Z</time>
      </trkpt>
      <trkpt lat="48.74848" lon="2.00632">
        <ele>171</ele>
        <time>2020-10-01T07:40:10Z</time>
      </trkpt>
      <trkpt lat="48.74832" lon="2.00617">
        <ele>159</ele>
        <time>2020-10-01T07:40:46Z</time>
      </trkpt>
      <trkpt lat="48.74822" lon="2.00594">
        <ele>161</ele>
        <time>2020-10-01T07:41:02Z</time>
      </trkpt>
      <trkpt lat="48.74814" lon="2.00569">
        <ele>157</ele>
        <time>2020-10-01T07:41:17Z</time>
      </trkpt>
      <trkpt lat="48.74819" lon="2.00597">
        <ele>160</ele>
        <time>2020-10-01T07:42:21Z</time>
      </trkpt>
      <trkpt lat="48.74835" lon="2.00585">
        <ele>167</ele>
        <time>2020-10-01T07:43:09Z</time>
      </trkpt>
      <trkpt lat="48.74838" lon="2.00558">
        <ele>169</ele>
        <time>2020-10-01T07:43:25Z</time>
      </trkpt>
      <trkpt lat="48.74839" lon="2.00529">
        <ele>169</ele>
        <time>2020-10-01T07:43:41Z</time>
      </trkpt>
      <trkpt lat="48.74845" lon="2.00502">
        <ele>167</ele>
        <time>2020-10-01T07:43:57Z</time>
      </trkpt>
      <trkpt lat="48.74847" lon="2.00475">
        <ele>167</ele>
        <time>2020-10-01T07:44:09Z</time>
      </trkpt>
      <trkpt lat="48.74849" lon="2.00446">
        <ele>167</ele>
        <time>2020-10-01T07:44:23Z</time>
      </trkpt>
      <trkpt lat="48.74849" lon="2.00418">
        <ele>165</ele>
        <time>2020-10-01T07:44:37Z</time>
      </trkpt>
      <trkpt lat="48.74846" lon="2.00391">
        <ele>166</ele>
        <time>2020-10-01T07:44:51Z</time>
      </trkpt>
      <trkpt lat="48.74832" lon="2.00374">
        <ele>158</ele>
        <time>2020-10-01T07:45:04Z</time>
      </trkpt>
      <trkpt lat="48.74831" lon="2.00346">
        <ele>161</ele>
        <time>2020-10-01T07:45:21Z</time>
      </trkpt>
      <trkpt lat="48.74837" lon="2.0032">
        <ele>167</ele>
        <time>2020-10-01T07:45:40Z</time>
      </trkpt>
      <trkpt lat="48.74836" lon="2.00291">
        <ele>168</ele>
        <time>2020-10-01T07:45:56Z</time>
      </trkpt>
      <trkpt lat="48.74826" lon="2.00268">
        <ele>161</ele>
        <time>2020-10-01T07:46:13Z</time>
      </trkpt>
      <trkpt lat="48.74814" lon="2.00247">
        <ele>161</ele>
        <time>2020-10-01T07:46:39Z</time>
      </trkpt>
      <trkpt lat="48.74815" lon="2.00219">
        <ele>158</ele>
        <time>2020-10-01T07:47:04Z</time>
      </trkpt>
      <trkpt lat="48.74826" lon="2.00197">
        <ele>159</ele>
        <time>2020-10-01T07:47:20Z</time>
      </trkpt>
      <trkpt lat="48.74835" lon="2.00171">
        <ele>164</ele>
        <time>2020-10-01T07:47:37Z</time>
      </trkpt>
      <trkpt lat="48.74847" lon="2.00148">
        <ele>165</ele>
        <time>2020-10-01T07:47:51Z</time>
      </trkpt>
      <trkpt lat="48.74855" lon="2.00124">
        <ele>165</ele>
        <time>2020-10-01T07:48:08Z</time>
      </trkpt>
      <trkpt lat="48.74853" lon="2.00096">
        <ele>163</ele>
        <time>2020-10-01T07:51:23Z</time>
      </trkpt>
      <trkpt lat="48.74859" lon="2.0007">
        <ele>162</ele>
        <time>2020-10-01T07:51:41Z</time>
      </trkpt>
      <trkpt lat="48.74856" lon="2.00041">
        <ele>162</ele>
        <time>2020-10-01T07:51:53Z</time>
      </trkpt>
      <trkpt lat="48.74854" lon="2.00013">
        <ele>159</ele>
        <time>2020-10-01T07:52:08Z</time>
      </trkpt>
      <trkpt lat="48.74854" lon="1.99984">
        <ele>157</ele>
        <time>2020-10-01T07:52:24Z</time>
      </trkpt>
      <trkpt lat="48.74849" lon="1.99958">
        <ele>158</ele>
        <time>2020-10-01T07:52:42Z</time>
      </trkpt>
      <trkpt lat="48.74854" lon="1.99932">
        <ele>157</ele>
        <time>2020-10-01T07:53:39Z</time>
      </trkpt>
      <trkpt lat="48.74858" lon="1.99905">
        <ele>156</ele>
        <time>2020-10-01T07:53:54Z</time>
      </trkpt>
      <trkpt lat="48.74866" lon="1.9988">
        <ele>158</ele>
        <time>2020-10-01T07:54:14Z</time>
      </trkpt>
      <trkpt lat="48.74871" lon="1.99853">
        <ele>159</ele>
        <time>2020-10-01T07:54:35Z</time>
      </trkpt>
      <trkpt lat="48.74871" lon="1.99824">
        <ele>159</ele>
        <time>2020-10-01T07:55:24Z</time>
      </trkpt>
      <trkpt lat="48.74871" lon="1.99795">
        <ele>160</ele>
        <time>2020-10-01T07:55:40Z</time>
      </trkpt>
      <trkpt lat="48.74873" lon="1.99768">
        <ele>160</ele>
        <time>2020-10-01T07:55:54Z</time>
      </trkpt>
      <trkpt lat="48.7487" lon="1.99741">
        <ele>161</ele>
        <time>2020-10-01T07:56:07Z</time>
      </trkpt>
      <trkpt lat="48.74862" lon="1.99715">
        <ele>160</ele>
        <time>2020-10-01T07:56:20Z</time>
      </trkpt>
      <trkpt lat="48.74856" lon="1.9969">
        <ele>159</ele>
        <time>2020-10-01T07:56:34Z</time>
      </trkpt>
      <trkpt lat="48.74858" lon="1.99662">
        <ele>158</ele>
        <time>2020-10-01T07:56:50Z</time>
      </trkpt>
      <trkpt lat="48.74867" lon="1.99638">
        <ele>159</ele>
        <time>2020-10-01T07:57:07Z</time>
      </trkpt>
      <trkpt lat="48.74867" lon="1.9961">
        <ele>158</ele>
        <time>2020-10-01T07:57:32Z</time>
      </trkpt>
      <trkpt lat="48.74875" lon="1.99585">
        <ele>159</ele>
        <time>2020-10-01T07:58:08Z</time>
      </trkpt>
      <trkpt lat="48.74883" lon="1.9956">
        <ele>159</ele>
        <time>2020-10-01T07:58:22Z</time>
      </trkpt>
      <trkpt lat="48.74885" lon="1.99531">
        <ele>159</ele>
        <time>2020-10-01T07:58:39Z</time>
      </trkpt>
      <trkpt lat="48.74879" lon="1.99504">
        <ele>159</ele>
        <time>2020-10-01T07:58:57Z</time>
      </trkpt>
      <trkpt lat="48.74871" lon="1.99478">
        <ele>159</ele>
        <time>2020-10-01T07:59:15Z</time>
      </trkpt>
      <trkpt lat="48.74873" lon="1.99451">
        <ele>160</ele>
        <time>2020-10-01T07:59:33Z</time>
      </trkpt>
      <trkpt lat="48.74884" lon="1.99429">
        <ele>161</ele>
        <time>2020-10-01T07:59:50Z</time>
      </trkpt>
      <trkpt lat="48.74894" lon="1.99406">
        <ele>164</ele>
        <time>2020-10-01T08:00:08Z</time>
      </trkpt>
      <trkpt lat="48.74908" lon="1.99388">
        <ele>164</ele>
        <time>2020-10-01T08:01:47Z</time>
      </trkpt>
      <trkpt lat="48.74921" lon="1.9937">
        <ele>171</ele>
        <time>2020-10-01T08:02:02Z</time>
      </trkpt>
      <trkpt lat="48.74924" lon="1.99342">
        <ele>171</ele>
        <time>2020-10-01T08:02:19Z</time>
      </trkpt>
      <trkpt lat="48.74925" lon="1.99313">
        <ele>171</ele>
        <time>2020-10-01T08:02:33Z</time>
      </trkpt>
      <trkpt lat="48.74913" lon="1.99291">
        <ele>164</ele>
        <time>2020-10-01T08:02:47Z</time>
      </trkpt>
      <trkpt lat="48.74903" lon="1.99267">
        <ele>164</ele>
        <time>2020-10-01T08:03:01Z</time>
      </trkpt>
      <trkpt lat="48.74902" lon="1.9924">
        <ele>165</ele>
        <time>2020-10-01T08:03:16Z</time>
      </trkpt>
      <trkpt lat="48.74907" lon="1.99212">
        <ele>164</ele>
        <time>2020-10-01T08:03:33Z</time>
      </trkpt>
      <trkpt lat="48.74917" lon="1.9919">
        <ele>169</ele>
        <time>2020-10-01T08:03:52Z</time>
      </trkpt>
      <trkpt lat="48.74918" lon="1.99161">
        <ele>167</ele>
        <time>2020-10-01T08:04:06Z</time>
      </trkpt>
      <trkpt lat="48.74926" lon="1.99135">
        <ele>167</ele>
        <time>2020-10-01T08:04:24Z</time>
      </trkpt>
      <trkpt lat="48.74933" lon="1.99109">
        <ele>167</ele>
        <time>2020-10-01T08:04:57Z</time>
      </trkpt>
      <trkpt lat="48.74946" lon="1.99091">
        <ele>167</ele>
        <time>2020-10-01T08:05:13Z</time>
      </trkpt>
      <trkpt lat="48.7496" lon="1.99073">
        <ele>166</ele>
        <time>2020-10-01T08:05:27Z</time>
      </trkpt>
      <trkpt lat="48.7497" lon="1.99049">
        <ele>166</ele>
        <time>2020-10-01T08:05:46Z</time>
      </trkpt>
      <trkpt lat="48.74981" lon="1.99028">
        <ele>166</ele>
        <time>2020-10-01T08:06:04Z</time>
      </trkpt>
      <trkpt lat="48.74992" lon="1.99005">
        <ele>168</ele>
        <time>2020-10-01T08:06:58Z</time>
      </trkpt>
      <trkpt lat="48.75008" lon="1.98987">
        <ele>169</ele>
        <time>2020-10-01T08:07:13Z</time>
      </trkpt>
      <trkpt lat="48.75019" lon="1.98964">
        <ele>168</ele>
        <time>2020-10-01T08:07:26Z</time>
      </trkpt>
      <trkpt lat="48.75025" lon="1.98939">
        <ele>168</ele>
        <time>2020-10-01T08:07:38Z</time>
      </trkpt>
      <trkpt lat="48.75037" lon="1.98918">
        <ele>168</ele>
        <time>2020-10-01T08:07:55Z</time>
      </trkpt>
      <trkpt lat="48.75048" lon="1.98896">
        <ele>167</ele>
        <time>2020-10-01T08:08:11Z</time>
      </trkpt>
      <trkpt lat="48.7505" lon="1.98867">
        <ele>167</ele>
        <time>2020-10-01T08:08:25Z</time>
      </trkpt>
      <trkpt lat="48.75068" lon="1.98868">
        <ele>168</ele>
        <time>2020-10-01T08:09:11Z</time>
      </trkpt>
      <trkpt lat="48.75086" lon="1.98861">
        <ele>170</ele>
        <time>2020-10-01T08:09:31Z</time>
      </trkpt>
      <trkpt lat="48.75104" lon="1.9887">
        <ele>171</ele>
        <time>2020-10-01T08:09:52Z</time>
      </trkpt>
      <trkpt lat="48.75122" lon="1.98876">
        <ele>171</ele>
        <time>2020-10-01T08:10:17Z</time>
      </trkpt>
      <trkpt lat="48.7514" lon="1.98884">
        <ele>172</ele>
        <time>2020-10-01T08:10:43Z</time>
      </trkpt>
      <trkpt lat="48.75156" lon="1.98897">
        <ele>172</ele>
        <time>2020-10-01T08:11:03Z</time>
      </trkpt>
      <trkpt lat="48.75171" lon="1.98913">
        <ele>174</ele>
        <time>2020-10-01T08:11:31Z</time>
      </trkpt>
      <trkpt lat="48.75176" lon="1.9894">
        <ele>175</ele>
        <time>2020-10-01T08:11:50Z</time>
      </trkpt>
      <trkpt lat="48.75185" lon="1.98965">
        <ele>175</ele>
        <time>2020-10-01T08:12:06Z</time>
      </trkpt>
      <trkpt lat="48.75201" lon="1.9898">
        <ele>175</ele>
        <time>2020-10-01T08:12:25Z</time>
      </trkpt>
      <trkpt lat="48.75218" lon="1.98989">
        <ele>175</ele>
        <time>2020-10-01T08:12:41Z</time>
      </trkpt>
      <trkpt lat="48.75237" lon="1.98992">
        <ele>176</ele>
        <time>2020-10-01T08:12:56Z</time>
      </trkpt>
      <trkpt lat="48.75255" lon="1.98992">
        <ele>177</ele>
        <time>2020-10-01T08:13:18Z</time>
      </trkpt>
      <trkpt lat="48.75273" lon="1.98981">
        <ele>177</ele>
        <time>2020-10-01T08:13:32Z</time>
      </trkpt>
      <trkpt lat="48.75286" lon="1.98962">
        <ele>177</ele>
        <time>2020-10-01T08:13:44Z</time>
      </trkpt>
      <trkpt lat="48.75303" lon="1.98951">
        <ele>178</ele>
        <time>2020-10-01T08:14:00Z</time>
      </trkpt>
      <trkpt lat="48.75322" lon="1.98952">
        <ele>178</ele>
        <time>2020-10-01T08:15:25Z</time>
      </trkpt>
      <trkpt lat="48.75339" lon="1.98944">
        <ele>178</ele>
        <time>2020-10-01T08:15:39Z</time>
      </trkpt>
      <trkpt lat="48.75355" lon="1.9896">
        <ele>179</ele>
        <time>2020-10-01T08:16:00Z</time>
      </trkpt>
      <trkpt lat="48.75373" lon="1.98969">
        <ele>179</ele>
        <time>2020-10-01T08:16:16Z</time>
      </trkpt>
      <trkpt lat="48.75393" lon="1.98967">
        <ele>179</ele>
        <time>2020-10-01T08:16:30Z</time>
      </trkpt>
      <trkpt lat="48.75408" lon="1.98952">
        <ele>178</ele>
        <time>2020-10-01T08:16:45Z</time>
      </trkpt>
      <trkpt lat="48.75421" lon="1.98933">
        <ele>178</ele>
        <time>2020-10-01T08:16:58Z</time>
      </trkpt>
      <trkpt lat="48.7543" lon="1.98907">
        <ele>177</ele>
        <time>2020-10-01T08:17:12Z</time>
      </trkpt>
      <trkpt lat="48.75436" lon="1.9888">
        <ele>177</ele>
        <time>2020-10-01T08:17:26Z</time>
      </trkpt>
      <trkpt lat="48.7544" lon="1.98853">
        <ele>177</ele>
        <time>2020-10-01T08:17:43Z</time>
      </trkpt>
      <trkpt lat="48.75459" lon="1.98854">
        <ele>178</ele>
        <time>2020-10-01T08:18:01Z</time>
      </trkpt>
      <trkpt lat="48.75477" lon="1.98854">
        <ele>178</ele>
        <time>2020-10-01T08:18:15Z</time>
      </trkpt>
      <trkpt lat="48.75496" lon="1.98853">
        <ele>179</ele>
        <time>2020-10-01T08:18:28Z</time>
      </trkpt>
      <trkpt lat="48.75514" lon="1.98858">
        <ele>181</ele>
        <time>2020-10-01T08:18:46Z</time>
      </trkpt>
      <trkpt lat="48.75529" lon="1.98876">
        <ele>181</ele>
        <time>2020-10-01T08:19:02Z</time>
      </trkpt>
      <trkpt lat="48.7554" lon="1.98898">
        <ele>181</ele>
        <time>2020-10-01T08:19:16Z</time>
      </trkpt>
      <trkpt lat="48.7555" lon="1.98922">
        <ele>180</ele>
        <time>2020-10-01T08:21:59Z</time>
      </trkpt>
      <trkpt lat="48.75552" lon="1.98949">
        <ele>180</ele>
        <time>2020-10-01T08:24:24Z</time>
      </trkpt>
      <trkpt lat="48.75559" lon="1.98974">
        <ele>180</ele>
        <time>2020-10-01T08:24:40Z</time>
      </trkpt>
      <trkpt lat="48.75571" lon="1.98995">
        <ele>179</ele>
        <time>2020-10-01T08:24:53Z</time>
      </trkpt>
      <trkpt lat="48.75584" lon="1.99016">
        <ele>179</ele>
        <time>2020-10-01T08:25:11Z</time>
      </trkpt>
      <trkpt lat="48.75584" lon="1.99044">
        <ele>179</ele>
        <time>2020-10-01T08:25:27Z</time>
      </trkpt>
      <trkpt lat="48.75588" lon="1.9907">
        <ele>179</ele>
        <time>2020-10-01T08:25:41Z</time>
      </trkpt>
      <trkpt lat="48.75594" lon="1.99099">
        <ele>180</ele>
        <time>2020-10-01T08:25:54Z</time>
      </trkpt>
      <trkpt lat="48.75602" lon="1.99126">
        <ele>180</ele>
        <time>2020-10-01T08:26:07Z</time>
      </trkpt>
      <trkpt lat="48.75616" lon="1.99146">
        <ele>180</ele>
        <time>2020-10-01T08:26:20Z</time>
      </trkpt>
      <trkpt lat="48.75633" lon="1.99161">
        <ele>180</ele>
        <time>2020-10-01T08:26:31Z</time>
      </trkpt>
      <trkpt lat="48.75647" lon="1.9918">
        <ele>180</ele>
        <time>2020-10-01T08:26:43Z</time>
      </trkpt>
      <trkpt lat="48.75659" lon="1.99201">
        <ele>180</ele>
        <time>2020-10-01T08:26:56Z</time>
      </trkpt>
      <trkpt lat="48.75669" lon="1.99224">
        <ele>179</ele>
        <time>2020-10-01T08:27:08Z</time>
      </trkpt>
      <trkpt lat="48.75683" lon="1.99244">
        <ele>179</ele>
        <time>2020-10-01T08:27:32Z</time>
      </trkpt>
      <trkpt lat="48.75701" lon="1.99253">
        <ele>179</ele>
        <time>2020-10-01T08:27:48Z</time>
      </trkpt>
      <trkpt lat="48.75713" lon="1.99276">
        <ele>178</ele>
        <time>2020-10-01T08:28:08Z</time>
      </trkpt>
      <trkpt lat="48.75718" lon="1.99303">
        <ele>178</ele>
        <time>2020-10-01T08:28:23Z</time>
      </trkpt>
      <trkpt lat="48.75732" lon="1.9932">
        <ele>178</ele>
        <time>2020-10-01T08:28:36Z</time>
      </trkpt>
      <trkpt lat="48.75745" lon="1.99341">
        <ele>178</ele>
        <time>2020-10-01T08:28:51Z</time>
      </trkpt>
      <trkpt lat="48.75747" lon="1.99369">
        <ele>178</ele>
        <time>2020-10-01T08:29:09Z</time>
      </trkpt>
      <trkpt lat="48.75752" lon="1.99395">
        <ele>178</ele>
        <time>2020-10-01T08:29:24Z</time>
      </trkpt>
      <trkpt lat="48.75765" lon="1.99418">
        <ele>178</ele>
        <time>2020-10-01T08:29:35Z</time>
      </trkpt>
      <trkpt lat="48.75778" lon="1.99438">
        <ele>178</ele>
        <time>2020-10-01T08:29:48Z</time>
      </trkpt>
      <trkpt lat="48.75796" lon="1.99441">
        <ele>179</ele>
        <time>2020-10-01T08:30:03Z</time>
      </trkpt>
      <trkpt lat="48.75814" lon="1.99447">
        <ele>179</ele>
        <time>2020-10-01T08:30:20Z</time>
      </trkpt>
      <trkpt lat="48.75828" lon="1.99467">
        <ele>179</ele>
        <time>2020-10-01T08:30:38Z</time>
      </trkpt>
      <trkpt lat="48.75842" lon="1.99487">
        <ele>178</ele>
        <time>2020-10-01T08:30:50Z</time>
      </trkpt>
      <trkpt lat="48.75855" lon="1.99508">
        <ele>178</ele>
        <time>2020-10-01T08:31:06Z</time>
      </trkpt>
      <trkpt lat="48.75871" lon="1.9952">
        <ele>178</ele>
        <time>2020-10-01T08:31:20Z</time>
      </trkpt>
      <trkpt lat="48.75883" lon="1.99541">
        <ele>178</ele>
        <time>2020-10-01T08:31:33Z</time>
      </trkpt>
      <trkpt lat="48.75889" lon="1.99569">
        <ele>178</ele>
        <time>2020-10-01T08:31:50Z</time>
      </trkpt>
      <trkpt lat="48.75892" lon="1.99597">
        <ele>178</ele>
        <time>2020-10-01T08:32:04Z</time>
      </trkpt>
      <trkpt lat="48.75899" lon="1.99622">
        <ele>178</ele>
        <time>2020-10-01T08:32:18Z</time>
      </trkpt>
      <trkpt lat="48.75914" lon="1.99641">
        <ele>178</ele>
        <time>2020-10-01T08:32:35Z</time>
      </trkpt>
      <trkpt lat="48.75931" lon="1.99631">
        <ele>176</ele>
        <time>2020-10-01T08:32:49Z</time>
      </trkpt>
      <trkpt lat="48.75948" lon="1.99621">
        <ele>176</ele>
        <time>2020-10-01T08:33:07Z</time>
      </trkpt>
      <trkpt lat="48.75966" lon="1.99613">
        <ele>176</ele>
        <time>2020-10-01T08:33:25Z</time>
      </trkpt>
      <trkpt lat="48.75976" lon="1.99637">
        <ele>176</ele>
        <time>2020-10-01T08:35:42Z</time>
      </trkpt>
      <trkpt lat="48.75977" lon="1.99664">
        <ele>176</ele>
        <time>2020-10-01T08:36:46Z</time>
      </trkpt>
      <trkpt lat="48.75991" lon="1.99682">
        <ele>176</ele>
        <time>2020-10-01T08:37:03Z</time>
      </trkpt>
      <trkpt lat="48.76004" lon="1.99702">
        <ele>175</ele>
        <time>2020-10-01T08:37:22Z</time>
      </trkpt>
      <trkpt lat="48.7601" lon="1.99728">
        <ele>175</ele>
        <time>2020-10-01T08:37:34Z</time>
      </trkpt>
      <trkpt lat="48.76008" lon="1.99755">
        <ele>175</ele>
        <time>2020-10-01T08:37:51Z</time>
      </trkpt>
      <trkpt lat="48.75999" lon="1.99779">
        <ele>175</ele>
        <time>2020-10-01T08:38:10Z</time>
      </trkpt>
      <trkpt lat="48.75986" lon="1.998">
        <ele>175</ele>
        <time>2020-10-01T08:38:26Z</time>
      </trkpt>
      <trkpt lat="48.75984" lon="1.99828">
        <ele>175</ele>
        <time>2020-10-01T08:38:44Z</time>
      </trkpt>
      <trkpt lat="48.75991" lon="1.99853">
        <ele>174</ele>
        <time>2020-10-01T08:38:59Z</time>
      </trkpt>
      <trkpt lat="48.76003" lon="1.99874">
        <ele>175</ele>
        <time>2020-10-01T08:39:20Z</time>
      </trkpt>
      <trkpt lat="48.76015" lon="1.99897">
        <ele>175</ele>
        <time>2020-10-01T08:39:36Z</time>
      </trkpt>
      <trkpt lat="48.76011" lon="1.99924">
        <ele>174</ele>
        <time>2020-10-01T08:39:54Z</time>
      </trkpt>
      <trkpt lat="48.7602" lon="1.99948">
        <ele>175</ele>
        <time>2020-10-01T08:40:12Z</time>
      </trkpt>
      <trkpt lat="48.76022" lon="1.99976">
        <ele>174</ele>
        <time>2020-10-01T08:40:30Z</time>
      </trkpt>
      <trkpt lat="48.76013" lon="2">
        <ele>173</ele>
        <time>2020-10-01T08:40:50Z</time>
      </trkpt>
      <trkpt lat="48.76009" lon="2.00028">
        <ele>173</ele>
        <time>2020-10-01T08:41:10Z</time>
      </trkpt>
      <trkpt lat="48.76007" lon="2.00057">
        <ele>172</ele>
        <time>2020-10-01T08:41:27Z</time>
      </trkpt>
      <trkpt lat="48.76015" lon="2.00082">
        <ele>172</ele>
        <time>2020-10-01T08:41:46Z</time>
      </trkpt>
      <trkpt lat="48.76011" lon="2.00109">
        <ele>172</ele>
        <time>2020-10-01T08:44:36Z</time>
      </trkpt>
      <trkpt lat="48.76013" lon="2.00137">
        <ele>173</ele>
        <time>2020-10-01T08:44:52Z</time>
      </trkpt>
      <trkpt lat="48.76019" lon="2.00164">
        <ele>173</ele>
        <time>2020-10-01T08:45:05Z</time>
      </trkpt>
      <trkpt lat="48.76022" lon="2.00192">
        <ele>173</ele>
        <time>2020-10-01T08:45:21Z</time>
      </trkpt>
      <trkpt lat="48.76016" lon="2.00218">
        <ele>172</ele>
        <time>2020-10-01T08:45:39Z</time>
      </trkpt>
      <trkpt lat="48.76015" lon="2.00247">
        <ele>172</ele>
        <time>2020-10-01T08:45:54Z</time>
      </trkpt>
      <trkpt lat="48.76017" lon="2.00275">
        <ele>172</ele>
        <time>2020-10-01T08:46:10Z</time>
      </trkpt>
      <trkpt lat="48.76029" lon="2.00298">
        <ele>172</ele>
        <time>2020-10-01T08:46:25Z</time>
      </trkpt>
      <trkpt lat="48.76037" lon="2.00322">
        <ele>172</ele>
        <time>2020-10-01T08:46:43Z</time>
      </trkpt>
      <trkpt lat="48.76038" lon="2.00351">
        <ele>172</ele>
        <time>2020-10-01T08:46:58Z</time>
      </trkpt>
      <trkpt lat="48.76025" lon="2.00372">
        <ele>171</ele>
        <time>2020-10-01T08:47:13Z</time>
      </trkpt>
      <trkpt lat="48.76013" lon="2.00393">
        <ele>171</ele>
        <time>2020-10-01T08:47:28Z</time>
      </trkpt>
      <trkpt lat="48.76001" lon="2.00415">
        <ele>170</ele>
        <time>2020-10-01T08:47:52Z</time>
      </trkpt>
      <trkpt lat="48.7601" lon="2.0044">
        <ele>170</ele>
        <time>2020-10-01T08:48:12Z</time>
      </trkpt>
      <trkpt lat="48.75996" lon="2.00458">
        <ele>170</ele>
        <time>2020-10-01T08:50:17Z</time>
      </trkpt>
      <trkpt lat="48.75992" lon="2.00486">
        <ele>169</ele>
        <time>2020-10-01T08:50:40Z</time>
      </trkpt>
      <trkpt lat="48.76" lon="2.00511">
        <ele>169</ele>
        <time>2020-10-01T08:51:05Z</time>
      </trkpt>
      <trkpt lat="48.76008" lon="2.00535">
        <ele>169</ele>
        <time>2020-10-01T08:51:23Z</time>
      </trkpt>
      <trkpt lat="48.7602" lon="2.00556">
        <ele>169</ele>
        <time>2020-10-01T08:51:39Z</time>
      </trkpt>
      <trkpt lat="48.76009" lon="2.00579">
        <ele>168</ele>
        <time>2020-10-01T08:52:53Z</time>
      </trkpt>
      <trkpt lat="48.75995" lon="2.00598">
        <ele>167</ele>
        <time>2020-10-01T08:53:46Z</time>
      </trkpt>
      <trkpt lat="48.76004" lon="2.00621">
        <ele>168</ele>
        <time>2020-10-01T08:54:59Z</time>
      </trkpt>
      <trkpt lat="48.76015" lon="2.00644">
        <ele>168</ele>
        <time>2020-10-01T08:55:14Z</time>
      </trkpt>
      <trkpt lat="48.76025" lon="2.00668">
        <ele>167</ele>
        <time>2020-10-01T08:55:28Z</time>
      </trkpt>
      <trkpt lat="48.76035" lon="2.00694">
        <ele>168</ele>
        <time>2020-10-01T08:55:42Z</time>
      </trkpt>
      <trkpt lat="48.76044" lon="2.00719">
        <ele>167</ele>
        <time>2020-10-01T08:55:58Z</time>
      </trkpt>
      <trkpt lat="48.76054" lon="2.00744">
        <ele>167</ele>
        <time>2020-10-01T08:56:13Z</time>
      </trkpt>
      <trkpt lat="48.76066" lon="2.00764">
        <ele>165</ele>
        <time>2020-10-01T08:56:33Z</time>
      </trkpt>
      <trkpt lat="48.76073" lon="2.0079">
        <ele>164</ele>
        <time>2020-10-01T08:56:59Z</time>
      </trkpt>
      <trkpt lat="48.76068" lon="2.00816">
        <ele>164</ele>
        <time>2020-10-01T08:57:15Z</time>
      </trkpt>
      <trkpt lat="48.76057" lon="2.00839">
        <ele>163</ele>
        <time>2020-10-01T08:57:29Z</time>
      </trkpt>
      <trkpt lat="48.76045" lon="2.0086">
        <ele>163</ele>
        <time>2020-10-01T08:57:46Z</time>
      </trkpt>
      <trkpt lat="48.76032" lon="2.0088">
        <ele>163</ele>
        <time>2020-10-01T08:58:04Z</time>
      </trkpt>
      <trkpt lat="48.76018" lon="2.00898">
        <ele>164</ele>
        <time>2020-10-01T08:58:18Z</time>
      </trkpt>
      <trkpt lat="48.76006" lon="2.00921">
        <ele>164</ele>
        <time>2020-10-01T08:58:30Z</time>
      </trkpt>
      <trkpt lat="48.75994" lon="2.00942">
        <ele>165</ele>
        <time>2020-10-01T08:58:42Z</time>
      </trkpt>
      <trkpt lat="48.75982" lon="2.00964">
        <ele>166</ele>
        <time>2020-10-01T08:58:54Z</time>
      </trkpt>
      <trkpt lat="48.75968" lon="2.00984">
        <ele>166</ele>
        <time>2020-10-01T08:59:06Z</time>
      </trkpt>
      <trkpt lat="48.75959" lon="2.01009">
        <ele>166</ele>
        <time>2020-10-01T08:59:21Z</time>
      </trkpt>
      <trkpt lat="48.75946" lon="2.01031">
        <ele>166</ele>
        <time>2020-10-01T08:59:41Z</time>
      </trkpt>
      <trkpt lat="48.75933" lon="2.0105">
        <ele>167</ele>
        <time>2020-10-01T08:59:56Z</time>
      </trkpt>
      <trkpt lat="48.75919" lon="2.01069">
        <ele>167</ele>
        <time>2020-10-01T09:00:11Z</time>
      </trkpt>
      <trkpt lat="48.75907" lon="2.0109">
        <ele>169</ele>
        <time>2020-10-01T09:00:29Z</time>
      </trkpt>
      <trkpt lat="48.75896" lon="2.01112">
        <ele>170</ele>
        <time>2020-10-01T09:00:46Z</time>
      </trkpt>
      <trkpt lat="48.75884" lon="2.01133">
        <ele>170</ele>
        <time>2020-10-01T09:01:01Z</time>
      </trkpt>
      <trkpt lat="48.75871" lon="2.01154">
        <ele>170</ele>
        <time>2020-10-01T09:01:16Z</time>
      </trkpt>
      <trkpt lat="48.75857" lon="2.01175">
        <ele>171</ele>
        <time>2020-10-01T09:01:27Z</time>
      </trkpt>
      <trkpt lat="48.75844" lon="2.01195">
        <ele>171</ele>
        <time>2020-10-01T09:01:38Z</time>
      </trkpt>
      <trkpt lat="48.75832" lon="2.01217">
        <ele>172</ele>
        <time>2020-10-01T09:01:51Z</time>
      </trkpt>
      <trkpt lat="48.75822" lon="2.0124">
        <ele>171</ele>
        <time>2020-10-01T09:02:08Z</time>
      </trkpt>
      <trkpt lat="48.75837" lon="2.01256">
        <ele>170</ele>
        <time>2020-10-01T09:02:39Z</time>
      </trkpt>
      <trkpt lat="48.75853" lon="2.01271">
        <ele>170</ele>
        <time>2020-10-01T09:02:52Z</time>
      </trkpt>
      <trkpt lat="48.75868" lon="2.01288">
        <ele>170</ele>
        <time>2020-10-01T09:03:09Z</time>
      </trkpt>
      <trkpt lat="48.75887" lon="2.01296">
        <ele>170</ele>
        <time>2020-10-01T09:03:18Z</time>
      </trkpt>
      <trkpt lat="48.75903" lon="2.01308">
        <ele>170</ele>
        <time>2020-10-01T09:03:30Z</time>
      </trkpt>
      <trkpt lat="48.75921" lon="2.01318">
        <ele>169</ele>
        <time>2020-10-01T09:03:42Z</time>
      </trkpt>
      <trkpt lat="48.75938" lon="2.0133">
        <ele>169</ele>
        <time>2020-10-01T09:03:53Z</time>
      </trkpt>
      <trkpt lat="48.75955" lon="2.01341">
        <ele>168</ele>
        <time>2020-10-01T09:04:06Z</time>
      </trkpt>
      <trkpt lat="48.75973" lon="2.0135">
        <ele>167</ele>
        <time>2020-10-01T09:04:19Z</time>
      </trkpt>
      <trkpt lat="48.7599" lon="2.01364">
        <ele>167</ele>
        <time>2020-10-01T09:04:32Z</time>
      </trkpt>
      <trkpt lat="48.76007" lon="2.01375">
        <ele>165</ele>
        <time>2020-10-01T09:04:44Z</time>
      </trkpt>
      <trkpt lat="48.76024" lon="2.01387">
        <ele>165</ele>
        <time>2020-10-01T09:04:58Z</time>
      </trkpt>
      <trkpt lat="48.76041" lon="2.01397">
        <ele>165</ele>
        <time>2020-10-01T09:05:10Z</time>
      </trkpt>
      <trkpt lat="48.76057" lon="2.01409">
        <ele>165</ele>
        <time>2020-10-01T09:05:22Z</time>
      </trkpt>
      <trkpt lat="48.76072" lon="2.01426">
        <ele>165</ele>
        <time>2020-10-01T09:06:51Z</time>
      </trkpt>
      <trkpt lat="48.76089" lon="2.01436">
        <ele>167</ele>
        <time>2020-10-01T09:07:03Z</time>
      </trkpt>
      <trkpt lat="48.76106" lon="2.01447">
        <ele>168</ele>
        <time>2020-10-01T09:07:15Z</time>
      </trkpt>
      <trkpt lat="48.76122" lon="2.0146">
        <ele>169</ele>
        <time>2020-10-01T09:07:28Z</time>
      </trkpt>
      <trkpt lat="48.76107" lon="2.01496">
        <ele>168.8</ele>
      </trkpt>
      <trkpt lat="48.76093" lon="2.01524">
        <ele>170.6</ele>
      </trkpt>
      <trkpt lat="48.76092" lon="2.01652">
        <ele>173</ele>
      </trkpt>
      <trkpt lat="48.76097" lon="2.0171">
        <ele>173.1</ele>
      </trkpt>
      <trkpt lat="48.76103" lon="2.01754">
        <ele>172.5</ele>
      </trkpt>
      <trkpt lat="48.76119" lon="2.01783">
        <ele>173.3</ele>
      </trkpt>
      <trkpt lat="48.76128" lon="2.01803">
        <ele>173.6</ele>
      </trkpt>
      <trkpt lat="48.76128" lon="2.01827">
        <ele>173.6</ele>
      </trkpt>
      <trkpt lat="48.76126" lon="2.01862">
        <ele>174</ele>
        <time>2020-10-01T09:15:33Z</time>
      </trkpt>
      <trkpt lat="48.76113" lon="2.01882">
        <ele>174</ele>
        <time>2020-10-01T09:15:45Z</time>
      </trkpt>
      <trkpt lat="48.76099" lon="2.019">
        <ele>174</ele>
        <time>2020-10-01T09:16:00Z</time>
      </trkpt>
      <trkpt lat="48.76087" lon="2.01922">
        <ele>174</ele>
        <time>2020-10-01T09:16:23Z</time>
      </trkpt>
      <trkpt lat="48.76074" lon="2.01941">
        <ele>172</ele>
        <time>2020-10-01T09:16:37Z</time>
      </trkpt>
      <trkpt lat="48.76062" lon="2.01964">
        <ele>172</ele>
        <time>2020-10-01T09:16:53Z</time>
      </trkpt>
      <trkpt lat="48.76057" lon="2.01991">
        <ele>172</ele>
        <time>2020-10-01T09:17:06Z</time>
      </trkpt>
      <trkpt lat="48.76052" lon="2.02017">
        <ele>173</ele>
        <time>2020-10-01T09:17:19Z</time>
      </trkpt>
      <trkpt lat="48.76046" lon="2.02043">
        <ele>172</ele>
        <time>2020-10-01T09:20:14Z</time>
      </trkpt>
      <trkpt lat="48.76029" lon="2.02033">
        <ele>172</ele>
        <time>2020-10-01T09:20:50Z</time>
      </trkpt>
      <trkpt lat="48.76016" lon="2.02013">
        <ele>171</ele>
        <time>2020-10-01T09:21:12Z</time>
      </trkpt>
      <trkpt lat="48.76006" lon="2.01989">
        <ele>171</ele>
        <time>2020-10-01T09:21:30Z</time>
      </trkpt>
      <trkpt lat="48.76" lon="2.01963">
        <ele>171</ele>
        <time>2020-10-01T09:21:46Z</time>
      </trkpt>
      <trkpt lat="48.75992" lon="2.01938">
        <ele>168</ele>
        <time>2020-10-01T09:22:00Z</time>
      </trkpt>
      <trkpt lat="48.75981" lon="2.01914">
        <ele>167</ele>
        <time>2020-10-01T09:22:13Z</time>
      </trkpt>
      <trkpt lat="48.75969" lon="2.01893">
        <ele>166</ele>
        <time>2020-10-01T09:22:29Z</time>
      </trkpt>
      <trkpt lat="48.75964" lon="2.01866">
        <ele>165</ele>
        <time>2020-10-01T09:22:44Z</time>
      </trkpt>
      <trkpt lat="48.75957" lon="2.01839">
        <ele>165</ele>
        <time>2020-10-01T09:22:58Z</time>
      </trkpt>
      <trkpt lat="48.75946" lon="2.01815">
        <ele>164</ele>
        <time>2020-10-01T09:23:13Z</time>
      </trkpt>
      <trkpt lat="48.75938" lon="2.0179">
        <ele>165</ele>
        <time>2020-10-01T09:23:26Z</time>
      </trkpt>
      <trkpt lat="48.75923" lon="2.01774">
        <ele>165</ele>
        <time>2020-10-01T09:23:38Z</time>
      </trkpt>
      <trkpt lat="48.75906" lon="2.0176">
        <ele>164</ele>
        <time>2020-10-01T09:23:51Z</time>
      </trkpt>
      <trkpt lat="48.7589" lon="2.01748">
        <ele>165</ele>
        <time>2020-10-01T09:24:03Z</time>
      </trkpt>
      <trkpt lat="48.75874" lon="2.01734">
        <ele>165</ele>
        <time>2020-10-01T09:24:17Z</time>
      </trkpt>
      <trkpt lat="48.75857" lon="2.01721">
        <ele>165</ele>
        <time>2020-10-01T09:24:32Z</time>
      </trkpt>
      <trkpt lat="48.7584" lon="2.01708">
        <ele>165</ele>
        <time>2020-10-01T09:24:45Z</time>
      </trkpt>
      <trkpt lat="48.75823" lon="2.01697">
        <ele>167</ele>
        <time>2020-10-01T09:24:57Z</time>
      </trkpt>
      <trkpt lat="48.75807" lon="2.01686">
        <ele>167</ele>
        <time>2020-10-01T09:25:11Z</time>
      </trkpt>
      <trkpt lat="48.75791" lon="2.01669">
        <ele>168</ele>
        <time>2020-10-01T09:25:24Z</time>
      </trkpt>
      <trkpt lat="48.75778" lon="2.0165">
        <ele>172</ele>
        <time>2020-10-01T09:25:35Z</time>
      </trkpt>
      <trkpt lat="48.75759" lon="2.01644">
        <ele>172</ele>
        <time>2020-10-01T09:25:48Z</time>
      </trkpt>
      <trkpt lat="48.75741" lon="2.01644">
        <ele>174</ele>
        <time>2020-10-01T09:26:00Z</time>
      </trkpt>
      <trkpt lat="48.75732" lon="2.01668">
        <ele>171</ele>
        <time>2020-10-01T09:26:14Z</time>
      </trkpt>
      <trkpt lat="48.75729" lon="2.01696">
        <ele>170</ele>
        <time>2020-10-01T09:26:29Z</time>
      </trkpt>
      <trkpt lat="48.75729" lon="2.01723">
        <ele>169</ele>
        <time>2020-10-01T09:26:41Z</time>
      </trkpt>
      <trkpt lat="48.75716" lon="2.01744">
        <ele>169</ele>
        <time>2020-10-01T09:26:57Z</time>
      </trkpt>
      <trkpt lat="48.757" lon="2.01761">
        <ele>167</ele>
        <time>2020-10-01T09:27:18Z</time>
      </trkpt>
      <trkpt lat="48.75699" lon="2.01788">
        <ele>166</ele>
        <time>2020-10-01T09:27:32Z</time>
      </trkpt>
      <trkpt lat="48.75687" lon="2.01809">
        <ele>166</ele>
        <time>2020-10-01T09:27:44Z</time>
      </trkpt>
      <trkpt lat="48.7567" lon="2.01817">
        <ele>167</ele>
        <time>2020-10-01T09:28:01Z</time>
      </trkpt>
      <trkpt lat="48.75652" lon="2.01826">
        <ele>168</ele>
        <time>2020-10-01T09:28:13Z</time>
      </trkpt>
      <trkpt lat="48.75635" lon="2.01815">
        <ele>168</ele>
        <time>2020-10-01T09:28:38Z</time>
      </trkpt>
      <trkpt lat="48.7562" lon="2.018">
        <ele>169</ele>
        <time>2020-10-01T09:28:52Z</time>
      </trkpt>
      <trkpt lat="48.75604" lon="2.01788">
        <ele>169</ele>
        <time>2020-10-01T09:29:08Z</time>
      </trkpt>
      <trkpt lat="48.7559" lon="2.01769">
        <ele>170</ele>
        <time>2020-10-01T09:29:24Z</time>
      </trkpt>
      <trkpt lat="48.75574" lon="2.01754">
        <ele>170</ele>
        <time>2020-10-01T09:30:15Z</time>
      </trkpt>
      <trkpt lat="48.75556" lon="2.0176">
        <ele>167</ele>
        <time>2020-10-01T09:31:34Z</time>
      </trkpt>
      <trkpt lat="48.75537" lon="2.01758">
        <ele>165</ele>
        <time>2020-10-01T09:31:56Z</time>
      </trkpt>
      <trkpt lat="48.75518" lon="2.01762">
        <ele>164</ele>
        <time>2020-10-01T09:32:08Z</time>
      </trkpt>
      <trkpt lat="48.7551" lon="2.01735">
        <ele>166</ele>
        <time>2020-10-01T09:32:30Z</time>
      </trkpt>
      <trkpt lat="48.75512" lon="2.01708">
        <ele>168</ele>
        <time>2020-10-01T09:32:49Z</time>
      </trkpt>
      <trkpt lat="48.75511" lon="2.01679">
        <ele>167</ele>
        <time>2020-10-01T09:33:04Z</time>
      </trkpt>
      <trkpt lat="48.75508" lon="2.01651">
        <ele>169</ele>
        <time>2020-10-01T09:33:18Z</time>
      </trkpt>
      <trkpt lat="48.75501" lon="2.01626">
        <ele>170</ele>
        <time>2020-10-01T09:33:31Z</time>
      </trkpt>
      <trkpt lat="48.75496" lon="2.01599">
        <ele>168</ele>
        <time>2020-10-01T09:33:44Z</time>
      </trkpt>
      <trkpt lat="48.75494" lon="2.01572">
        <ele>170</ele>
        <time>2020-10-01T09:33:57Z</time>
      </trkpt>
      <trkpt lat="48.7549" lon="2.01544">
        <ele>169</ele>
        <time>2020-10-01T09:34:10Z</time>
      </trkpt>
      <trkpt lat="48.75489" lon="2.01514">
        <ele>170</ele>
        <time>2020-10-01T09:34:25Z</time>
      </trkpt>
      <trkpt lat="48.75486" lon="2.01487">
        <ele>172</ele>
        <time>2020-10-01T09:34:38Z</time>
      </trkpt>
      <trkpt lat="48.75478" lon="2.01462">
        <ele>171</ele>
        <time>2020-10-01T09:34:48Z</time>
      </trkpt>
      <trkpt lat="48.75465" lon="2.01441">
        <ele>171</ele>
        <time>2020-10-01T09:34:58Z</time>
      </trkpt>
      <trkpt lat="48.75455" lon="2.01417">
        <ele>171</ele>
        <time>2020-10-01T09:35:11Z</time>
      </trkpt>
      <trkpt lat="48.75444" lon="2.01393">
        <ele>172</ele>
        <time>2020-10-01T09:35:26Z</time>
      </trkpt>
      <trkpt lat="48.7543" lon="2.01375">
        <ele>173</ele>
        <time>2020-10-01T09:35:38Z</time>
      </trkpt>
      <trkpt lat="48.75423" lon="2.01348">
        <ele>173</ele>
        <time>2020-10-01T09:35:54Z</time>
      </trkpt>
      <trkpt lat="48.75414" lon="2.01323">
        <ele>172</ele>
        <time>2020-10-01T09:36:07Z</time>
      </trkpt>
      <trkpt lat="48.75411" lon="2.01295">
        <ele>172</ele>
        <time>2020-10-01T09:36:24Z</time>
      </trkpt>
      <trkpt lat="48.75411" lon="2.01267">
        <ele>173</ele>
        <time>2020-10-01T09:36:39Z</time>
      </trkpt>
      <trkpt lat="48.75422" lon="2.01245">
        <ele>176</ele>
        <time>2020-10-01T09:36:57Z</time>
      </trkpt>
      <trkpt lat="48.75428" lon="2.01219">
        <ele>176</ele>
        <time>2020-10-01T09:37:10Z</time>
      </trkpt>
      <trkpt lat="48.75432" lon="2.01191">
        <ele>176</ele>
        <time>2020-10-01T09:37:22Z</time>
      </trkpt>
      <trkpt lat="48.75432" lon="2.01163">
        <ele>176</ele>
        <time>2020-10-01T09:37:37Z</time>
      </trkpt>
      <trkpt lat="48.75433" lon="2.01134">
        <ele>176</ele>
        <time>2020-10-01T09:37:55Z</time>
      </trkpt>
      <trkpt lat="48.75433" lon="2.01106">
        <ele>176</ele>
        <time>2020-10-01T09:38:11Z</time>
      </trkpt>
      <trkpt lat="48.75431" lon="2.01078">
        <ele>176</ele>
        <time>2020-10-01T09:38:28Z</time>
      </trkpt>
      <trkpt lat="48.75428" lon="2.01051">
        <ele>176</ele>
        <time>2020-10-01T09:38:42Z</time>
      </trkpt>
      <trkpt lat="48.7543" lon="2.01022">
        <ele>176</ele>
        <time>2020-10-01T09:38:55Z</time>
      </trkpt>
      <trkpt lat="48.75428" lon="2.00995">
        <ele>175</ele>
        <time>2020-10-01T09:39:08Z</time>
      </trkpt>
      <trkpt lat="48.75421" lon="2.00967">
        <ele>175</ele>
        <time>2020-10-01T09:39:21Z</time>
      </trkpt>
      <trkpt lat="48.7541" lon="2.00942">
        <ele>173</ele>
        <time>2020-10-01T09:39:34Z</time>
      </trkpt>
      <trkpt lat="48.75396" lon="2.00922">
        <ele>173</ele>
        <time>2020-10-01T09:39:49Z</time>
      </trkpt>
      <trkpt lat="48.75381" lon="2.00906">
        <ele>173</ele>
        <time>2020-10-01T09:40:01Z</time>
      </trkpt>
      <trkpt lat="48.75366" lon="2.00889">
        <ele>173</ele>
        <time>2020-10-01T09:40:14Z</time>
      </trkpt>
      <trkpt lat="48.75355" lon="2.00866">
        <ele>173</ele>
        <time>2020-10-01T09:40:29Z</time>
      </trkpt>
      <trkpt lat="48.75339" lon="2.0085">
        <ele>173</ele>
        <time>2020-10-01T09:40:44Z</time>
      </trkpt>
      <trkpt lat="48.75327" lon="2.00827">
        <ele>173</ele>
        <time>2020-10-01T09:41:01Z</time>
      </trkpt>
      <trkpt lat="48.75316" lon="2.00805">
        <ele>173</ele>
        <time>2020-10-01T09:41:15Z</time>
      </trkpt>
      <trkpt lat="48.75305" lon="2.00783">
        <ele>173</ele>
        <time>2020-10-01T09:41:28Z</time>
      </trkpt>
      <trkpt lat="48.75292" lon="2.00763">
        <ele>173</ele>
        <time>2020-10-01T09:41:41Z</time>
      </trkpt>
      <trkpt lat="48.75278" lon="2.00745">
        <ele>174</ele>
        <time>2020-10-01T09:41:55Z</time>
      </trkpt>
      <trkpt lat="48.75267" lon="2.00722">
        <ele>174</ele>
        <time>2020-10-01T09:42:07Z</time>
      </trkpt>
      <trkpt lat="48.75256" lon="2.00698">
        <ele>174</ele>
        <time>2020-10-01T09:42:19Z</time>
      </trkpt>
      <trkpt lat="48.75245" lon="2.00675">
        <ele>172</ele>
        <time>2020-10-01T09:42:31Z</time>
      </trkpt>
      <trkpt lat="48.75233" lon="2.00655">
        <ele>173</ele>
        <time>2020-10-01T09:42:44Z</time>
      </trkpt>
      <trkpt lat="48.75224" lon="2.00629">
        <ele>173</ele>
        <time>2020-10-01T09:42:59Z</time>
      </trkpt>
      <trkpt lat="48.75221" lon="2.00601">
        <ele>173</ele>
        <time>2020-10-01T09:43:13Z</time>
      </trkpt>
      <trkpt lat="48.75217" lon="2.00574">
        <ele>173</ele>
        <time>2020-10-01T09:43:25Z</time>
      </trkpt>
      <trkpt lat="48.75207" lon="2.00552">
        <ele>173</ele>
        <time>2020-10-01T09:43:38Z</time>
      </trkpt>
      <trkpt lat="48.75189" lon="2.00561">
        <ele>173</ele>
        <time>2020-10-01T09:44:59Z</time>
      </trkpt>
      <trkpt lat="48.75173" lon="2.00577">
        <ele>174</ele>
        <time>2020-10-01T09:45:15Z</time>
      </trkpt>
      <trkpt lat="48.75159" lon="2.00596">
        <ele>174</ele>
        <time>2020-10-01T09:45:36Z</time>
      </trkpt>
      <trkpt lat="48.75144" lon="2.00613">
        <ele>173</ele>
        <time>2020-10-01T09:45:52Z</time>
      </trkpt>
      <trkpt lat="48.75128" lon="2.00629">
        <ele>173</ele>
        <time>2020-10-01T09:46:07Z</time>
      </trkpt>
      <trkpt lat="48.75112" lon="2.00642">
        <ele>173</ele>
        <time>2020-10-01T09:46:21Z</time>
      </trkpt>
      <trkpt lat="48.75097" lon="2.00659">
        <ele>172</ele>
        <time>2020-10-01T09:46:34Z</time>
      </trkpt>
      <trkpt lat="48.75083" lon="2.00679">
        <ele>172</ele>
        <time>2020-10-01T09:46:46Z</time>
      </trkpt>
      <trkpt lat="48.75067" lon="2.00693">
        <ele>172</ele>
        <time>2020-10-01T09:46:58Z</time>
      </trkpt>
      <trkpt lat="48.75051" lon="2.00708">
        <ele>172</ele>
        <time>2020-10-01T09:47:12Z</time>
      </trkpt>
      <trkpt lat="48.75037" lon="2.00724">
        <ele>172</ele>
        <time>2020-10-01T09:47:24Z</time>
      </trkpt>
      <trkpt lat="48.75023" lon="2.00744">
        <ele>172</ele>
        <time>2020-10-01T09:47:36Z</time>
      </trkpt>
      <trkpt lat="48.75011" lon="2.00766">
        <ele>171</ele>
        <time>2020-10-01T09:47:48Z</time>
      </trkpt>
      <trkpt lat="48.74999" lon="2.00789">
        <ele>172</ele>
        <time>2020-10-01T09:48:00Z</time>
      </trkpt>
      <trkpt lat="48.74988" lon="2.00813">
        <ele>171</ele>
        <time>2020-10-01T09:48:13Z</time>
      </trkpt>
      <trkpt lat="48.74977" lon="2.00834">
        <ele>170</ele>
        <time>2020-10-01T09:48:25Z</time>
      </trkpt>
      <trkpt lat="48.74969" lon="2.0086">
        <ele>170</ele>
        <time>2020-10-01T09:48:38Z</time>
      </trkpt>
      <trkpt lat="48.74961" lon="2.00886">
        <ele>170</ele>
        <time>2020-10-01T09:48:51Z</time>
      </trkpt>
      <trkpt lat="48.74954" lon="2.00914">
        <ele>170</ele>
        <time>2020-10-01T09:49:05Z</time>
      </trkpt>
      <trkpt lat="48.74949" lon="2.0094">
        <ele>170</ele>
        <time>2020-10-01T09:49:17Z</time>
      </trkpt>
      <trkpt lat="48.74943" lon="2.00968">
        <ele>170</ele>
        <time>2020-10-01T09:49:30Z</time>
      </trkpt>
      <trkpt lat="48.74938" lon="2.00994">
        <ele>170</ele>
        <time>2020-10-01T09:49:42Z</time>
      </trkpt>
      <trkpt lat="48.74931" lon="2.01021">
        <ele>169</ele>
        <time>2020-10-01T09:49:55Z</time>
      </trkpt>
      <trkpt lat="48.74925" lon="2.01047">
        <ele>169</ele>
        <time>2020-10-01T09:50:07Z</time>
      </trkpt>
      <trkpt lat="48.74918" lon="2.01073">
        <ele>170</ele>
        <time>2020-10-01T09:50:20Z</time>
      </trkpt>
      <trkpt lat="48.7491" lon="2.01098">
        <ele>170</ele>
        <time>2020-10-01T09:50:33Z</time>
      </trkpt>
      <trkpt lat="48.74903" lon="2.01125">
        <ele>169</ele>
        <time>2020-10-01T09:50:46Z</time>
      </trkpt>
      <trkpt lat="48.74897" lon="2.01152">
        <ele>169</ele>
        <time>2020-10-01T09:50:58Z</time>
      </trkpt>
      <trkpt lat="48.74892" lon="2.01179">
        <ele>168</ele>
        <time>2020-10-01T09:51:10Z</time>
      </trkpt>
      <trkpt lat="48.74884" lon="2.01205">
        <ele>167</ele>
        <time>2020-10-01T09:51:25Z</time>
      </trkpt>
      <trkpt lat="48.74879" lon="2.01231">
        <ele>167</ele>
        <time>2020-10-01T09:51:39Z</time>
      </trkpt>
      <trkpt lat="48.74872" lon="2.01258">
        <ele>166</ele>
        <time>2020-10-01T09:51:52Z</time>
      </trkpt>
      <trkpt lat="48.74865" lon="2.01285">
        <ele>166</ele>
        <time>2020-10-01T09:52:04Z</time>
      </trkpt>
      <trkpt lat="48.7486" lon="2.01313">
        <ele>166</ele>
        <time>2020-10-01T09:52:16Z</time>
      </trkpt>
      <trkpt lat="48.74855" lon="2.0134">
        <ele>165</ele>
        <time>2020-10-01T09:52:28Z</time>
      </trkpt>
      <trkpt lat="48.74852" lon="2.01368">
        <ele>165</ele>
        <time>2020-10-01T09:52:40Z</time>
      </trkpt>
      <trkpt lat="48.74851" lon="2.01398">
        <ele>164</ele>
        <time>2020-10-01T09:52:53Z</time>
      </trkpt>
      <trkpt lat="48.74852" lon="2.01426">
        <ele>164</ele>
        <time>2020-10-01T09:53:07Z</time>
      </trkpt>
      <trkpt lat="48.74852" lon="2.01456">
        <ele>165</ele>
        <time>2020-10-01T09:53:19Z</time>
      </trkpt>
      <trkpt lat="48.74855" lon="2.01483">
        <ele>165</ele>
        <time>2020-10-01T09:53:30Z</time>
      </trkpt>
      <trkpt lat="48.74855" lon="2.01511">
        <ele>165</ele>
        <time>2020-10-01T09:53:44Z</time>
      </trkpt>
      <trkpt lat="48.74857" lon="2.01539">
        <ele>165</ele>
        <time>2020-10-01T09:53:57Z</time>
      </trkpt>
      <trkpt lat="48.74856" lon="2.01568">
        <ele>166</ele>
        <time>2020-10-01T09:54:12Z</time>
      </trkpt>
      <trkpt lat="48.74853" lon="2.01596">
        <ele>166</ele>
        <time>2020-10-01T09:54:25Z</time>
      </trkpt>
      <trkpt lat="48.74843" lon="2.01621">
        <ele>165</ele>
        <time>2020-10-01T09:54:38Z</time>
      </trkpt>
      <trkpt lat="48.7483" lon="2.01643">
        <ele>166</ele>
        <time>2020-10-01T09:54:51Z</time>
      </trkpt>
      <trkpt lat="48.74816" lon="2.01662">
        <ele>166</ele>
        <time>2020-10-01T09:55:04Z</time>
      </trkpt>
      <trkpt lat="48.74809" lon="2.01689">
        <ele>165</ele>
        <time>2020-10-01T09:55:18Z</time>
      </trkpt>
      <trkpt lat="48.74804" lon="2.01716">
        <ele>165</ele>
        <time>2020-10-01T09:55:32Z</time>
      </trkpt>
      <trkpt lat="48.74795" lon="2.01742">
        <ele>165</ele>
        <time>2020-10-01T09:55:46Z</time>
      </trkpt>
      <trkpt lat="48.74786" lon="2.01768">
        <ele>164</ele>
        <time>2020-10-01T09:56:00Z</time>
      </trkpt>
      <trkpt lat="48.74779" lon="2.01795">
        <ele>165</ele>
        <time>2020-10-01T09:56:13Z</time>
      </trkpt>
      <trkpt lat="48.7477" lon="2.01819">
        <ele>165</ele>
        <time>2020-10-01T09:56:27Z</time>
      </trkpt>
      <trkpt lat="48.74761" lon="2.01845">
        <ele>165</ele>
        <time>2020-10-01T09:56:40Z</time>
      </trkpt>
      <trkpt lat="48.74751" lon="2.0187">
        <ele>165</ele>
        <time>2020-10-01T09:56:55Z</time>
      </trkpt>
      <trkpt lat="48.74744" lon="2.01898">
        <ele>163</ele>
        <time>2020-10-01T09:57:08Z</time>
      </trkpt>
      <trkpt lat="48.74737" lon="2.01925">
        <ele>164</ele>
        <time>2020-10-01T09:57:21Z</time>
      </trkpt>
      <trkpt lat="48.74729" lon="2.0195">
        <ele>163</ele>
        <time>2020-10-01T09:57:33Z</time>
      </trkpt>
      <trkpt lat="48.7472" lon="2.01975">
        <ele>163</ele>
        <time>2020-10-01T09:57:46Z</time>
      </trkpt>
      <trkpt lat="48.74709" lon="2.01999">
        <ele>163</ele>
        <time>2020-10-01T09:58:00Z</time>
      </trkpt>
      <trkpt lat="48.74701" lon="2.02025">
        <ele>164</ele>
        <time>2020-10-01T09:58:12Z</time>
      </trkpt>
      <trkpt lat="48.74692" lon="2.02051">
        <ele>164</ele>
        <time>2020-10-01T09:58:25Z</time>
      </trkpt>
      <trkpt lat="48.74682" lon="2.02073">
        <ele>164</ele>
        <time>2020-10-01T09:58:39Z</time>
      </trkpt>
      <trkpt lat="48.74674" lon="2.02099">
        <ele>165</ele>
        <time>2020-10-01T09:58:52Z</time>
      </trkpt>
      <trkpt lat="48.74667" lon="2.02125">
        <ele>165</ele>
        <time>2020-10-01T09:59:03Z</time>
      </trkpt>
      <trkpt lat="48.7466" lon="2.02151">
        <ele>165</ele>
        <time>2020-10-01T09:59:15Z</time>
      </trkpt>
      <trkpt lat="48.74651" lon="2.02176">
        <ele>165</ele>
        <time>2020-10-01T09:59:28Z</time>
      </trkpt>
      <trkpt lat="48.74644" lon="2.02202">
        <ele>164</ele>
        <time>2020-10-01T09:59:41Z</time>
      </trkpt>
      <trkpt lat="48.74629" lon="2.02186">
        <ele>164</ele>
        <time>2020-10-01T10:00:12Z</time>
      </trkpt>
      <trkpt lat="48.74619" lon="2.0216">
        <ele>165</ele>
        <time>2020-10-01T10:00:28Z</time>
      </trkpt>
      <trkpt lat="48.74612" lon="2.02134">
        <ele>164</ele>
        <time>2020-10-01T10:00:48Z</time>
      </trkpt>
      <trkpt lat="48.74601" lon="2.02111">
        <ele>164</ele>
        <time>2020-10-01T10:01:02Z</time>
      </trkpt>
      <trkpt lat="48.74591" lon="2.02086">
        <ele>163</ele>
        <time>2020-10-01T10:01:16Z</time>
      </trkpt>
      <trkpt lat="48.74582" lon="2.02061">
        <ele>161</ele>
        <time>2020-10-01T10:01:29Z</time>
      </trkpt>
      <trkpt lat="48.74572" lon="2.02036">
        <ele>160</ele>
        <time>2020-10-01T10:01:43Z</time>
      </trkpt>
      <trkpt lat="48.74565" lon="2.02011">
        <ele>158</ele>
        <time>2020-10-01T10:01:57Z</time>
      </trkpt>
      <trkpt lat="48.74559" lon="2.01982">
        <ele>154</ele>
        <time>2020-10-01T10:02:11Z</time>
      </trkpt>
      <trkpt lat="48.74555" lon="2.01956">
        <ele>153</ele>
        <time>2020-10-01T10:02:25Z</time>
      </trkpt>
      <trkpt lat="48.74549" lon="2.0193">
        <ele>152</ele>
        <time>2020-10-01T10:02:39Z</time>
      </trkpt>
      <trkpt lat="48.74538" lon="2.01908">
        <ele>146</ele>
        <time>2020-10-01T10:02:51Z</time>
      </trkpt>
      <trkpt lat="48.74524" lon="2.01888">
        <ele>146</ele>
        <time>2020-10-01T10:03:05Z</time>
      </trkpt>
      <trkpt lat="48.74511" lon="2.01869">
        <ele>144</ele>
        <time>2020-10-01T10:03:21Z</time>
      </trkpt>
      <trkpt lat="48.74496" lon="2.01851">
        <ele>143</ele>
        <time>2020-10-01T10:03:34Z</time>
      </trkpt>
      <trkpt lat="48.7448" lon="2.01836">
        <ele>142</ele>
        <time>2020-10-01T10:03:46Z</time>
      </trkpt>
      <trkpt lat="48.74464" lon="2.01823">
        <ele>134</ele>
        <time>2020-10-01T10:04:01Z</time>
      </trkpt>
      <trkpt lat="48.74447" lon="2.01813">
        <ele>133</ele>
        <time>2020-10-01T10:04:45Z</time>
      </trkpt>
      <trkpt lat="48.74429" lon="2.01819">
        <ele>134</ele>
        <time>2020-10-01T10:05:01Z</time>
      </trkpt>
      <trkpt lat="48.74412" lon="2.01829">
        <ele>134</ele>
        <time>2020-10-01T10:05:20Z</time>
      </trkpt>
      <trkpt lat="48.74393" lon="2.01829">
        <ele>129</ele>
        <time>2020-10-01T10:05:36Z</time>
      </trkpt>
      <trkpt lat="48.74375" lon="2.01838">
        <ele>135</ele>
        <time>2020-10-01T10:05:50Z</time>
      </trkpt>
      <trkpt lat="48.74357" lon="2.01844">
        <ele>133</ele>
        <time>2020-10-01T10:06:04Z</time>
      </trkpt>
      <trkpt lat="48.74342" lon="2.0186">
        <ele>133</ele>
        <time>2020-10-01T10:06:21Z</time>
      </trkpt>
      <trkpt lat="48.74324" lon="2.0187">
        <ele>127</ele>
        <time>2020-10-01T10:06:34Z</time>
      </trkpt>
      <trkpt lat="48.74307" lon="2.01882">
        <ele>127</ele>
        <time>2020-10-01T10:06:48Z</time>
      </trkpt>
      <trkpt lat="48.7429" lon="2.01891">
        <ele>126</ele>
        <time>2020-10-01T10:07:01Z</time>
      </trkpt>
      <trkpt lat="48.74272" lon="2.01894">
        <ele>125</ele>
        <time>2020-10-01T10:07:12Z</time>
      </trkpt>
      <trkpt lat="48.74253" lon="2.01898">
        <ele>124</ele>
        <time>2020-10-01T10:07:25Z</time>
      </trkpt>
      <trkpt lat="48.74237" lon="2.0191">
        <ele>120</ele>
        <time>2020-10-01T10:07:39Z</time>
      </trkpt>
      <trkpt lat="48.74221" lon="2.01924">
        <ele>123</ele>
        <time>2020-10-01T10:07:53Z</time>
      </trkpt>
      <trkpt lat="48.74205" lon="2.01938">
        <ele>122</ele>
        <time>2020-10-01T10:08:07Z</time>
      </trkpt>
      <trkpt lat="48.7419" lon="2.01954">
        <ele>122</ele>
        <time>2020-10-01T10:08:40Z</time>
      </trkpt>
      <trkpt lat="48.74173" lon="2.01944">
        <ele>121</ele>
        <time>2020-10-01T10:08:56Z</time>
      </trkpt>
      <trkpt lat="48.74155" lon="2.01933">
        <ele>116</ele>
        <time>2020-10-01T10:09:11Z</time>
      </trkpt>
      <trkpt lat="48.74139" lon="2.01919">
        <ele>115</ele>
        <time>2020-10-01T10:09:26Z</time>
      </trkpt>
      <trkpt lat="48.74124" lon="2.01903">
        <ele>115</ele>
        <time>2020-10-01T10:09:39Z</time>
      </trkpt>
      <trkpt lat="48.74108" lon="2.01886">
        <ele>115</ele>
        <time>2020-10-01T10:09:52Z</time>
      </trkpt>
      <trkpt lat="48.74092" lon="2.01872">
        <ele>115</ele>
        <time>2020-10-01T10:10:04Z</time>
      </trkpt>
      <trkpt lat="48.74076" lon="2.01858">
        <ele>115</ele>
        <time>2020-10-01T10:10:23Z</time>
      </trkpt>
      <trkpt lat="48.74061" lon="2.01841">
        <ele>115</ele>
        <time>2020-10-01T10:10:37Z</time>
      </trkpt>
      <trkpt lat="48.74045" lon="2.01828">
        <ele>118</ele>
        <time>2020-10-01T10:10:51Z</time>
      </trkpt>
      <trkpt lat="48.74029" lon="2.01813">
        <ele>118</ele>
        <time>2020-10-01T10:11:06Z</time>
      </trkpt>
      <trkpt lat="48.74011" lon="2.01803">
        <ele>118</ele>
        <time>2020-10-01T10:11:19Z</time>
      </trkpt>
      <trkpt lat="48.73994" lon="2.01795">
        <ele>116</ele>
        <time>2020-10-01T10:11:31Z</time>
      </trkpt>
      <trkpt lat="48.73992" lon="2.01768">
        <ele>117</ele>
        <time>2020-10-01T10:11:57Z</time>
      </trkpt>
      <trkpt lat="48.74011" lon="2.01766">
        <ele>118</ele>
        <time>2020-10-01T10:12:22Z</time>
      </trkpt>
      <trkpt lat="48.74024" lon="2.01786">
        <ele>119</ele>
        <time>2020-10-01T10:12:39Z</time>
      </trkpt>
      <trkpt lat="48.74042" lon="2.01794">
        <ele>119</ele>
        <time>2020-10-01T10:12:52Z</time>
      </trkpt>
      <trkpt lat="48.7406" lon="2.018">
        <ele>119</ele>
        <time>2020-10-01T10:13:08Z</time>
      </trkpt>
      <trkpt lat="48.74078" lon="2.01808">
        <ele>119</ele>
        <time>2020-10-01T10:13:31Z</time>
      </trkpt>
      <trkpt lat="48.74096" lon="2.01808">
        <ele>120</ele>
        <time>2020-10-01T10:13:44Z</time>
      </trkpt>
    </trkseg>
  </trk>
</gpx>